Time;durP1;ratioP1;P1;durP2;ratioP2;P2;SDS_P1;SDS_P2;PMS_P1;PMS_P2;Temp;Humidity;BMP_temperature;BMP_pressure;BME280_temperature;BME280_humidity;BME280_pressure;Samples;Min_cycle;Max_cycle;Signal;HPM_P1;HPM_P2
2021/04/06 00:01:13;;;;;;;12.33;6.05;;;;;;;12.00;62.26;100939.92;1756562;80;21215;-47
2021/04/06 00:03:41;;;;;;;;;;;;;;;12.05;62.21;100932.85;1756288;80;21540;-48
2021/04/06 00:06:09;;;;;;;14.43;5.85;;;;;;;12.07;62.27;100938.89;1783766;80;20430;-49
2021/04/06 00:08:37;;;;;;;17.40;6.05;;;;;;;12.05;62.37;100934.16;1748402;80;21164;-48
2021/04/06 00:11:05;;;;;;;15.32;5.53;;;;;;;11.97;62.64;100930.41;1785893;80;21159;-50
2021/04/06 00:13:36;;;;;;;12.85;5.35;;;;;;;11.95;62.81;100932.67;1730197;80;21321;-47
2021/04/06 00:16:05;;;;;;;8.20;4.50;;;;;;;11.95;62.94;100935.28;1744691;81;21135;-48
2021/04/06 00:18:33;;;;;;;14.30;5.47;;;;;;;11.93;63.14;100930.55;1706657;83;21172;-50
2021/04/06 00:21:02;;;;;;;11.55;5.90;;;;;;;11.92;63.17;100934.91;1728607;81;21152;-50
2021/04/06 00:23:32;;;;;;;14.73;4.85;;;;;;;11.92;63.21;100931.43;1753815;81;21164;-49
2021/04/06 00:26:00;;;;;;;11.53;4.78;;;;;;;11.91;63.18;100925.82;1698113;81;21160;-50
2021/04/06 00:28:32;;;;;;;10.93;4.65;;;;;;;11.89;63.26;100925.83;1755353;81;21156;-47
2021/04/06 00:30:59;;;;;;;10.75;4.85;;;;;;;11.89;63.34;100919.31;1753843;81;21124;-51
2021/04/06 00:33:35;;;;;;;8.58;4.62;;;;;;;11.91;63.36;100915.39;1718227;81;21152;-54
2021/04/06 00:36:04;;;;;;;13.03;5.08;;;;;;;11.90;63.28;100917.58;1753670;81;21185;-48
2021/04/06 00:38:39;;;;;;;12.73;4.87;;;;;;;11.95;63.19;100918.33;1754101;81;21184;-46
2021/04/06 00:41:13;;;;;;;15.48;4.70;;;;;;;11.94;63.21;100908.78;1752789;81;21633;-47
2021/04/06 00:43:43;;;;;;;14.78;5.35;;;;;;;11.96;63.18;100906.99;1753480;81;21171;-48
2021/04/06 00:46:25;;;;;;;11.48;4.42;;;;;;;11.95;63.14;100907.91;1745940;81;21153;-50
2021/04/06 00:48:56;;;;;;;14.20;6.17;;;;;;;11.95;63.20;100902.69;1745097;81;21529;-48
2021/04/06 00:51:24;;;;;;;14.90;4.95;;;;;;;11.94;63.12;100895.30;1728885;81;21156;-48
2021/04/06 00:54:02;;;;;;;11.43;4.60;;;;;;;11.91;63.20;100903.66;1750059;81;21179;-51
2021/04/06 00:56:42;;;;;;;14.38;4.50;;;;;;;11.90;63.28;100904.53;1753856;81;21612;-50
2021/04/06 00:59:13;;;;;;;7.90;3.60;;;;;;;11.88;63.23;100900.67;1743850;82;21160;-50
2021/04/06 01:01:45;;;;;;;8.28;3.70;;;;;;;11.87;63.22;100895.03;1774516;80;21144;-50
2021/04/06 01:04:19;;;;;;;11.75;4.37;;;;;;;11.84;63.17;100894.26;1778755;80;21442;-47
2021/04/06 01:07:14;;;;;;;12.18;4.22;;;;;;;11.85;63.19;100894.69;1785898;80;21136;-47
2021/04/06 01:09:54;;;;;;;11.28;3.65;;;;;;;11.78;63.31;100891.80;1717511;83;21196;-47
2021/04/06 01:12:29;;;;;;;10.32;3.90;;;;;;;11.78;63.26;100890.50;1794738;79;27869;-47
2021/04/06 01:14:58;;;;;;;6.67;3.30;;;;;;;11.75;63.13;100891.42;1776487;80;21570;-49
2021/04/06 01:17:30;;;;;;;10.18;3.08;;;;;;;11.79;63.03;100893.50;1774789;80;21207;-50
2021/04/06 01:19:59;;;;;;;9.15;3.20;;;;;;;11.78;63.00;100888.77;1705087;83;21597;-47
2021/04/06 01:22:28;;;;;;;14.93;4.50;;;;;;;11.76;63.07;100898.37;1708006;83;21254;-48
2021/04/06 01:24:57;;;;;;;10.72;3.65;;;;;;;11.76;62.95;100896.20;1679911;84;21154;-50
2021/04/06 01:27:24;;;;;;;8.33;3.87;;;;;;;11.75;62.94;100891.86;1659143;86;21234;-52
2021/04/06 01:29:55;;;;;;;8.20;3.87;;;;;;;11.74;62.97;100896.25;1660018;86;21238;-47
2021/04/06 01:32:27;;;;;;;11.25;3.25;;;;;;;11.73;63.09;100891.05;1655608;86;21197;-47
2021/04/06 01:34:56;;;;;;;13.60;4.25;;;;;;;11.73;63.00;100888.44;1659739;86;21688;-47
2021/04/06 01:37:28;;;;;;;14.15;5.03;;;;;;;11.70;63.04;100888.53;1659726;86;21176;-51
2021/04/06 01:39:56;;;;;;;8.75;3.15;;;;;;;11.70;63.03;100883.31;1664437;86;21190;-50
2021/04/06 01:42:29;;;;;;;15.70;3.22;;;;;;;11.69;63.03;100882.89;1649011;86;21367;-50
2021/04/06 01:44:57;;;;;;;11.22;3.42;;;;;;;11.66;63.13;100873.83;1654889;86;21209;-50
2021/04/06 01:47:26;;;;;;;9.55;3.52;;;;;;;11.62;63.24;100881.31;1659593;86;21346;-50
2021/04/06 01:49:56;;;;;;;11.05;3.25;;;;;;;11.59;63.31;100880.06;1635973;86;21192;-51
2021/04/06 01:52:27;;;;;;;10.48;3.25;;;;;;;11.58;63.27;100877.06;1663543;86;21212;-47
2021/04/06 01:55:05;;;;;;;7.00;3.20;;;;;;;11.55;63.37;100874.08;1657909;86;21224;-50
2021/04/06 01:57:33;;;;;;;8.30;3.08;;;;;;;11.50;63.50;100868.11;1654415;86;21334;-50
2021/04/06 02:00:04;;;;;;;10.80;3.90;;;;;;;11.50;63.57;100873.31;1654439;86;21171;-47
2021/04/06 02:02:39;;;;;;;7.80;3.60;;;;;;;11.54;63.55;100869.74;1780186;79;23070;-50
2021/04/06 02:05:10;;;;;;;15.90;3.35;;;;;;;11.50;63.51;100870.71;1707647;82;21161;-49
2021/04/06 02:07:42;;;;;;;11.53;3.37;;;;;;;11.49;63.61;100878.13;1737375;82;21176;-51
2021/04/06 02:10:11;;;;;;;11.25;4.00;;;;;;;11.50;63.60;100877.70;1741305;82;21145;-51
2021/04/06 02:12:43;;;;;;;10.63;3.47;;;;;;;11.54;63.50;100870.22;1740411;82;21160;-51
2021/04/06 02:15:13;;;;;;;9.60;3.25;;;;;;;11.55;63.44;100875.82;1738901;82;21145;-49
2021/04/06 02:17:51;;;;;;;11.70;3.87;;;;;;;11.57;63.36;100870.13;1738278;82;21577;-49
2021/04/06 02:20:26;;;;;;;9.93;3.65;;;;;;;11.58;63.30;100871.38;1658260;84;21284;-53
2021/04/06 02:23:03;;;;;;;10.75;3.65;;;;;;;11.59;63.27;100869.64;1658676;85;21183;-49
2021/04/06 02:25:32;;;;;;;11.30;3.45;;;;;;;11.58;63.29;100868.78;1656348;85;21564;-47
2021/04/06 02:28:01;;;;;;;7.22;3.10;;;;;;;11.58;63.21;100871.85;1657829;86;21325;-51
2021/04/06 02:30:31;;;;;;;9.78;3.45;;;;;;;11.57;63.21;100871.43;1656153;86;21219;-48
2021/04/06 02:33:02;;;;;;;7.78;3.02;;;;;;;11.56;63.19;100863.22;1657857;86;21387;-52
2021/04/06 02:35:31;;;;;;;9.55;2.98;;;;;;;11.56;63.20;100864.52;1656625;86;21402;-50
2021/04/06 02:38:03;;;;;;;12.60;3.52;;;;;;;11.56;63.23;100860.61;1659861;86;21642;-51
2021/04/06 02:40:38;;;;;;;12.28;3.42;;;;;;;11.61;63.13;100860.03;1767334;79;22687;-48
2021/04/06 02:43:06;;;;;;;10.98;3.98;;;;;;;11.52;63.18;100858.97;1744664;82;21282;-50
2021/04/06 02:45:35;;;;;;;7.97;3.27;;;;;;;11.50;63.27;100856.38;1728671;82;21600;-47
2021/04/06 02:48:10;;;;;;;13.93;3.52;;;;;;;11.48;63.40;100859.03;1701342;82;21310;-51
2021/04/06 02:50:38;;;;;;;16.17;3.65;;;;;;;11.48;63.49;100857.73;1735402;82;21144;-47
2021/04/06 02:53:08;;;;;;;10.93;3.47;;;;;;;11.48;63.45;100853.42;1735664;82;21612;-50
2021/04/06 02:55:37;;;;;;;8.50;2.70;;;;;;;11.46;63.47;100851.70;1743126;82;21160;-47
2021/04/06 02:58:15;;;;;;;17.12;3.60;;;;;;;11.44;63.61;100848.27;1731989;82;21163;-51
2021/04/06 03:00:43;;;;;;;6.87;3.25;;;;;;;11.46;63.58;100845.19;1739508;82;21573;-47
2021/04/06 03:03:24;;;;;;;11.50;3.45;;;;;;;11.50;63.64;100843.82;1728258;82;21184;-50
2021/04/06 03:06:04;;;;;;;13.43;3.90;;;;;;;11.52;63.65;100840.73;1736632;82;21148;-50
2021/04/06 03:08:33;;;;;;;8.45;2.87;;;;;;;11.54;63.66;100842.85;1740476;82;21164;-47
2021/04/06 03:11:03;;;;;;;13.88;3.45;;;;;;;11.54;63.69;100837.64;1737936;82;21204;-50
2021/04/06 03:13:32;;;;;;;10.63;3.35;;;;;;;11.53;63.80;100843.73;1738640;82;21164;-50
2021/04/06 03:16:02;;;;;;;10.72;3.83;;;;;;;11.46;64.04;100843.02;1737937;82;21180;-50
2021/04/06 03:18:33;;;;;;;9.98;3.22;;;;;;;11.50;63.99;100841.22;1711872;83;21159;-50
2021/04/06 03:21:03;;;;;;;13.98;3.60;;;;;;;11.51;63.94;100845.52;1738730;81;21223;-51
2021/04/06 03:23:32;;;;;;;9.98;3.22;;;;;;;11.52;63.93;100839.42;1738339;82;21205;-51
2021/04/06 03:26:02;;;;;;;15.10;3.47;;;;;;;11.52;64.02;100835.52;1738188;82;21168;-50
2021/04/06 03:28:36;;;;;;;13.48;3.55;;;;;;;11.52;64.10;100834.22;1738007;82;21617;-50
2021/04/06 03:31:16;;;;;;;11.10;3.37;;;;;;;11.53;64.04;100835.91;1735605;82;21204;-49
2021/04/06 03:33:48;;;;;;;16.82;3.65;;;;;;;11.54;64.05;100840.25;1723697;82;21628;-51
2021/04/06 03:36:24;;;;;;;12.95;3.75;;;;;;;11.55;63.99;100840.20;1738083;82;21144;-50
2021/04/06 03:38:57;;;;;;;12.15;3.25;;;;;;;11.57;64.01;100842.77;1740215;81;21158;-47
2021/04/06 03:41:26;;;;;;;8.45;3.65;;;;;;;11.58;64.00;100835.37;1739341;82;21154;-51
2021/04/06 03:44:05;;;;;;;10.55;3.40;;;;;;;11.58;64.01;100839.28;1750807;82;21160;-50
2021/04/06 03:46:42;;;;;;;14.05;3.52;;;;;;;11.61;63.97;100835.27;1821938;77;23024;-51
2021/04/06 03:49:22;;;;;;;11.12;3.20;;;;;;;11.55;63.99;100840.20;1822049;78;21282;-50
2021/04/06 03:51:53;;;;;;;9.83;3.80;;;;;;;11.58;63.98;100841.41;1751186;81;21163;-50
2021/04/06 03:57:45;;;;;;;8.88;3.02;;;;;;;11.70;63.75;100841.61;1810609;79;22962;-53
2021/04/06 04:00:09;;;;;;;12.07;3.42;;;;;;;11.73;63.45;100844.13;1736780;82;21164;-48
2021/04/06 04:02:38;;;;;;;15.32;4.20;;;;;;;11.78;63.31;100854.00;1732954;82;21621;-50
2021/04/06 04:05:08;;;;;;;9.20;2.65;;;;;;;11.77;63.30;100848.36;1741175;82;21164;-51
2021/04/06 04:07:36;;;;;;;9.58;4.03;;;;;;;11.73;63.45;100842.82;1741902;82;21183;-50
2021/04/06 04:10:08;;;;;;;9.83;3.10;;;;;;;11.75;63.31;100841.03;1741853;82;21299;-50
2021/04/06 04:12:36;;;;;;;13.72;3.58;;;;;;;11.78;63.17;100834.02;1741613;81;21226;-49
2021/04/06 04:15:07;;;;;;;13.38;3.27;;;;;;;11.82;63.11;100842.16;1738655;82;21313;-51
2021/04/06 04:17:41;;;;;;;15.10;4.05;;;;;;;11.88;63.02;100837.23;1810806;79;22420;-50
2021/04/06 04:20:13;;;;;;;11.93;3.90;;;;;;;11.86;63.01;100840.33;1739500;82;21164;-50
2021/04/06 04:22:42;;;;;;;10.58;2.58;;;;;;;11.90;62.85;100843.27;1757893;81;21132;-48
2021/04/06 04:25:11;;;;;;;11.73;2.95;;;;;;;11.93;62.61;100844.50;1726705;83;21194;-50
2021/04/06 04:27:40;;;;;;;7.47;2.65;;;;;;;11.94;62.61;100843.59;1744889;81;21164;-51
2021/04/06 04:30:09;;;;;;;8.13;2.65;;;;;;;11.96;62.64;100841.80;1726727;83;21158;-50
2021/04/06 04:32:40;;;;;;;10.38;3.45;;;;;;;11.98;62.55;100838.70;1732215;83;21637;-48
2021/04/06 04:35:08;;;;;;;11.08;3.05;;;;;;;11.95;62.54;100838.80;1741680;81;21147;-47
2021/04/06 04:37:36;;;;;;;9.03;2.60;;;;;;;11.95;62.55;100833.58;1741760;81;21161;-48
2021/04/06 04:40:07;;;;;;;11.22;3.00;;;;;;;11.93;62.62;100832.30;1743819;81;21594;-49
2021/04/06 04:42:35;;;;;;;11.28;3.30;;;;;;;11.97;62.60;100833.92;1706764;82;21209;-50
2021/04/06 04:45:08;;;;;;;12.95;3.65;;;;;;;11.97;62.66;100831.31;1709036;83;21153;-49
2021/04/06 04:47:36;;;;;;;11.20;2.75;;;;;;;12.01;62.57;100826.90;1732806;82;21124;-50
2021/04/06 04:50:05;;;;;;;11.78;2.95;;;;;;;11.97;62.64;100830.48;1732612;82;21220;-47
2021/04/06 04:52:33;;;;;;;9.43;2.92;;;;;;;11.92;62.75;100827.99;1722189;82;21159;-50
2021/04/06 04:55:01;;;;;;;10.05;3.60;;;;;;;11.88;63.01;100828.10;1739791;82;21206;-47
2021/04/06 04:57:29;;;;;;;9.90;2.47;;;;;;;11.89;63.02;100824.14;1745793;81;21580;-48
2021/04/06 04:59:57;;;;;;;9.70;3.17;;;;;;;11.92;62.97;100824.52;1726520;83;21148;-46
2021/04/06 05:02:25;;;;;;;15.90;3.08;;;;;;;11.93;62.95;100828.38;1758540;81;21161;-49
2021/04/06 05:04:53;;;;;;;10.72;2.90;;;;;;;11.96;62.98;100824.84;1748045;81;21196;-47
2021/04/06 05:07:21;;;;;;;8.65;2.87;;;;;;;12.02;62.88;100820.77;1747225;81;21160;-50
2021/04/06 05:09:50;;;;;;;12.47;2.62;;;;;;;12.01;62.96;100824.30;1752129;81;21156;-49
2021/04/06 05:12:19;;;;;;;11.45;2.75;;;;;;;12.02;62.94;100819.47;1726579;83;21179;-51
2021/04/06 05:14:49;;;;;;;13.45;3.15;;;;;;;12.02;62.83;100819.03;1746243;81;21675;-48
2021/04/06 05:17:18;;;;;;;6.55;2.42;;;;;;;12.03;62.88;100821.20;1714276;83;21278;-48
2021/04/06 05:19:45;;;;;;;9.88;2.60;;;;;;;12.04;62.92;100824.20;1779575;80;21573;-49
2021/04/06 05:22:13;;;;;;;11.28;3.08;;;;;;;12.03;62.91;100828.58;1766189;80;21589;-53
2021/04/06 05:24:42;;;;;;;11.78;3.40;;;;;;;12.04;62.94;100832.88;1763812;81;21140;-50
2021/04/06 05:27:10;;;;;;;13.45;2.85;;;;;;;12.08;62.85;100836.25;1779475;80;21125;-51
2021/04/06 05:29:38;;;;;;;7.87;2.52;;;;;;;12.10;62.86;100831.85;1770092;81;21617;-49
2021/04/06 05:32:06;;;;;;;14.70;3.30;;;;;;;12.12;62.83;100820.93;1765906;81;21290;-51
2021/04/06 05:34:34;;;;;;;15.00;3.05;;;;;;;12.14;62.77;100830.88;1728031;82;21196;-49
2021/04/06 05:37:03;;;;;;;9.40;2.58;;;;;;;12.11;62.99;100829.67;1727740;82;21598;-48
2021/04/06 05:39:31;;;;;;;9.60;2.52;;;;;;;12.08;63.13;100836.25;1734143;82;21142;-50
2021/04/06 05:42:00;;;;;;;10.00;2.35;;;;;;;12.11;63.05;100834.89;1728514;82;21660;-49
2021/04/06 05:44:28;;;;;;;14.10;2.80;;;;;;;12.13;63.08;100829.18;1766470;81;21161;-54
2021/04/06 05:46:59;;;;;;;13.98;2.75;;;;;;;12.14;63.03;100828.27;1768014;81;21149;-48
2021/04/06 05:49:30;;;;;;;7.37;2.37;;;;;;;12.19;63.02;100825.96;1728101;82;21168;-48
2021/04/06 05:51:58;;;;;;;8.53;2.95;;;;;;;12.32;62.92;100832.14;1727888;82;21121;-46
2021/04/06 05:54:27;;;;;;;5.35;2.50;;;;;;;12.53;62.68;100829.77;1735827;82;21146;-49
2021/04/06 05:56:54;;;;;;;13.18;3.00;;;;;;;12.79;62.09;100823.37;1725108;82;21153;-49
2021/04/06 05:59:22;;;;;;;12.15;2.72;;;;;;;13.10;61.45;100830.30;1716950;83;21228;-46
2021/04/06 06:01:51;;;;;;;9.03;2.27;;;;;;;13.38;60.64;100824.61;1715727;83;21257;-48
2021/04/06 06:04:19;;;;;;;11.35;2.33;;;;;;;13.61;59.87;100825.59;1715303;83;21165;-47
2021/04/06 06:06:48;;;;;;;9.78;2.75;;;;;;;13.83;59.06;100820.48;1715520;83;21177;-46
2021/04/06 06:09:33;;;;;;;6.67;2.58;;;;;;;14.02;58.40;100816.33;1715522;83;21177;-48
2021/04/06 06:12:11;;;;;;;11.40;2.98;;;;;;;14.18;57.96;100820.12;1715388;83;21177;-51
2021/04/06 06:14:42;;;;;;;9.60;2.67;;;;;;;14.41;57.38;100818.02;1679939;84;21205;-47
2021/04/06 06:17:26;;;;;;;10.57;2.30;;;;;;;14.69;56.78;100814.32;1671493;85;21169;-49
2021/04/06 06:20:00;;;;;;;9.75;2.40;;;;;;;15.09;55.68;100811.48;1771432;79;22974;-52
2021/04/06 06:22:31;;;;;;;8.63;2.72;;;;;;;15.33;54.96;100813.16;1739498;82;21141;-49
2021/04/06 06:25:11;;;;;;;12.07;2.72;;;;;;;15.54;54.18;100818.85;1735212;82;21155;-49
2021/04/06 06:27:44;;;;;;;9.35;2.95;;;;;;;15.65;53.52;100819.28;1741340;81;21152;-48
2021/04/06 06:30:37;;;;;;;11.43;2.92;;;;;;;15.71;53.20;100824.27;1734551;82;21172;-48
2021/04/06 06:33:26;;;;;;;12.07;2.25;;;;;;;15.75;52.81;100821.91;1739912;82;21134;-51
2021/04/06 06:36:00;;;;;;;6.15;2.52;;;;;;;15.81;52.49;100819.03;1735789;82;21120;-46
2021/04/06 06:38:37;;;;;;;10.05;2.95;;;;;;;15.86;52.17;100818.39;1739877;82;21609;-47
2021/04/06 06:41:16;;;;;;;9.65;2.55;;;;;;;15.83;52.04;100817.19;1740493;81;21168;-48
2021/04/06 06:43:53;;;;;;;9.45;2.62;;;;;;;15.73;51.99;100821.13;1741462;82;21313;-50
2021/04/06 06:49:04;;;;;;;13.75;2.72;;;;;;;15.51;52.37;100817.69;1772532;79;22987;-51
2021/04/06 06:51:37;;;;;;;12.03;3.72;;;;;;;15.29;52.74;100822.06;1747512;82;21157;-50
2021/04/06 06:54:06;;;;;;;8.33;2.33;;;;;;;15.14;53.03;100822.66;1742087;82;21121;-51
2021/04/06 06:56:41;;;;;;;7.97;2.25;;;;;;;15.05;53.32;100828.24;1741185;82;21125;-52
2021/04/06 06:59:09;;;;;;;8.28;2.10;;;;;;;15.01;53.45;100831.90;1740043;82;21140;-48
2021/04/06 07:01:38;;;;;;;11.48;2.85;;;;;;;14.97;53.61;100831.62;1737435;82;21181;-48
2021/04/06 07:04:10;;;;;;;13.98;3.37;;;;;;;14.97;53.67;100831.17;1734334;82;21151;-49
2021/04/06 07:06:44;;;;;;;8.40;2.30;;;;;;;15.01;53.62;100830.59;1738097;82;21330;-51
2021/04/06 07:09:27;;;;;;;9.43;2.58;;;;;;;15.06;53.67;100822.11;1738062;82;21160;-47
2021/04/06 07:12:02;;;;;;;9.28;3.65;;;;;;;15.16;53.46;100823.00;1738164;82;21177;-50
2021/04/06 07:14:33;;;;;;;13.68;2.87;;;;;;;15.36;53.09;100830.06;1737965;81;21275;-47
2021/04/06 07:17:04;;;;;;;9.40;2.17;;;;;;;15.49;52.80;100830.01;1738244;82;21112;-47
2021/04/06 07:19:44;;;;;;;9.00;2.30;;;;;;;15.62;52.39;100832.50;1739005;82;21290;-50
2021/04/06 07:22:14;;;;;;;7.53;2.55;;;;;;;15.65;52.22;100828.46;1738399;82;21326;-48
2021/04/06 07:24:42;;;;;;;8.88;2.27;;;;;;;15.69;51.98;100824.80;1730112;82;21176;-52
2021/04/06 07:27:13;;;;;;;7.50;2.65;;;;;;;15.72;51.97;100822.05;1741090;82;21176;-49
2021/04/06 07:29:41;;;;;;;8.40;2.42;;;;;;;15.79;51.75;100816.92;1740382;82;21188;-48
2021/04/06 07:32:11;;;;;;;9.93;2.50;;;;;;;15.85;51.27;100815.36;1736944;82;21159;-50
2021/04/06 07:34:40;;;;;;;11.60;2.70;;;;;;;15.83;50.86;100815.88;1740943;82;21158;-48
2021/04/06 07:37:08;;;;;;;15.90;2.37;;;;;;;15.71;50.89;100815.09;1738721;82;21153;-47
2021/04/06 07:39:36;;;;;;;8.88;2.47;;;;;;;15.54;51.11;100820.16;1737979;82;21197;-47
2021/04/06 07:42:06;;;;;;;9.08;2.20;;;;;;;15.35;51.52;100816.57;1731969;82;21145;-49
2021/04/06 07:44:35;;;;;;;6.15;2.10;;;;;;;15.18;51.87;100819.00;1737011;82;21164;-47
2021/04/06 07:47:03;;;;;;;5.65;1.90;;;;;;;15.01;52.24;100818.80;1735527;81;21164;-46
2021/04/06 07:49:37;;;;;;;11.35;2.58;;;;;;;14.88;52.61;100806.63;1738705;82;21286;-53
2021/04/06 07:52:17;;;;;;;11.65;2.60;;;;;;;14.77;53.03;100814.50;1739029;82;21637;-49
2021/04/06 07:54:48;;;;;;;11.68;2.58;;;;;;;14.67;53.23;100809.59;1712042;83;21136;-46
2021/04/06 08:13:59;;;;;;;7.50;1.93;;;;;;;14.08;54.39;100817.88;1691437;84;21385;-51
2021/04/06 08:16:35;;;;;;;5.35;1.85;;;;;;;14.04;54.55;100817.14;1770810;79;23313;-49
2021/04/06 08:19:06;;;;;;;6.62;2.15;;;;;;;13.96;54.67;100820.47;1739380;82;21149;-46
2021/04/06 08:21:34;;;;;;;5.30;2.15;;;;;;;13.94;54.79;100825.34;1737282;82;21181;-47
2021/04/06 08:24:08;;;;;;;12.03;2.25;;;;;;;13.90;54.80;100816.77;1741291;82;21176;-51
2021/04/06 08:26:37;;;;;;;7.47;2.30;;;;;;;13.88;54.94;100821.19;1727175;82;21176;-47
2021/04/06 08:29:27;;;;;;;8.73;2.08;;;;;;;13.89;55.02;100819.82;1744264;82;21330;-50
2021/04/06 08:32:16;;;;;;;11.10;2.62;;;;;;;13.90;55.07;100820.69;1734740;82;21195;-49
2021/04/06 08:34:53;;;;;;;16.05;2.98;;;;;;;13.93;55.07;100811.41;1699651;84;21225;-50
2021/04/06 08:37:36;;;;;;;8.88;2.05;;;;;;;13.95;54.86;100805.67;1683067;84;21198;-49
2021/04/06 08:40:09;;;;;;;10.50;2.20;;;;;;;14.00;54.56;100810.30;1705149;84;21202;-50
2021/04/06 08:42:37;;;;;;;8.28;2.40;;;;;;;14.00;54.47;100804.20;1700609;82;21237;-49
2021/04/06 08:45:07;;;;;;;14.03;2.20;;;;;;;14.02;54.43;100812.86;1667075;85;21556;-49
2021/04/06 08:47:45;;;;;;;6.15;2.30;;;;;;;14.03;54.42;100814.14;1697293;82;21186;-49
2021/04/06 08:50:35;;;;;;;11.28;2.35;;;;;;;14.08;54.38;100815.26;1808209;79;22838;-47
2021/04/06 08:53:05;;;;;;;8.78;2.20;;;;;;;14.04;54.43;100814.52;1779708;80;21144;-47
2021/04/06 08:55:33;;;;;;;7.37;1.95;;;;;;;14.06;54.47;100814.02;1780007;80;21313;-48
2021/04/06 08:58:02;;;;;;;5.95;1.60;;;;;;;14.09;54.37;100807.83;1778024;80;21199;-47
2021/04/06 09:00:30;;;;;;;7.50;1.80;;;;;;;14.09;54.27;100810.44;1777367;80;21568;-49
2021/04/06 09:03:05;;;;;;;7.22;2.00;;;;;;;14.09;54.12;100812.61;1763472;80;21184;-49
2021/04/06 09:05:34;;;;;;;5.87;1.50;;;;;;;14.09;54.01;100802.59;1741777;82;21166;-48
2021/04/06 09:08:02;;;;;;;6.67;1.90;;;;;;;14.10;53.93;100803.84;1741633;82;21305;-46
2021/04/06 09:10:39;;;;;;;12.23;2.00;;;;;;;14.13;54.00;100800.27;1742710;82;21118;-51
2021/04/06 09:13:07;;;;;;;9.03;1.77;;;;;;;14.16;53.92;100798.38;1741693;82;21313;-45
2021/04/06 09:15:35;;;;;;;6.35;1.75;;;;;;;14.20;53.82;100799.16;1743644;82;21588;-50
2021/04/06 09:18:06;;;;;;;7.30;2.37;;;;;;;14.21;53.66;100784.70;1743569;82;21320;-49
2021/04/06 09:20:34;;;;;;;7.25;2.20;;;;;;;14.20;53.71;100786.89;1742265;82;21130;-48
2021/04/06 09:23:05;;;;;;;7.25;1.67;;;;;;;14.19;53.72;100787.82;1740440;82;21182;-48
2021/04/06 09:25:33;;;;;;;8.48;1.77;;;;;;;14.20;53.75;100787.38;1740542;82;21124;-51
2021/04/06 09:28:04;;;;;;;6.80;1.87;;;;;;;14.20;53.83;100779.05;1740702;82;21143;-46
2021/04/06 09:30:40;;;;;;;6.87;2.12;;;;;;;14.17;53.91;100787.02;1740797;82;21107;-49
2021/04/06 09:33:14;;;;;;;6.12;2.20;;;;;;;14.17;54.05;100786.16;1731728;82;21123;-49
2021/04/06 09:35:48;;;;;;;7.87;1.95;;;;;;;14.18;54.10;100786.09;1738725;82;21156;-49
2021/04/06 09:38:19;;;;;;;9.50;2.25;;;;;;;14.17;54.07;100781.79;1740549;82;21150;-49
2021/04/06 09:40:47;;;;;;;6.70;1.85;;;;;;;14.18;54.03;100783.48;1742783;82;21158;-47
2021/04/06 09:43:15;;;;;;;6.87;1.42;;;;;;;14.15;54.07;100778.82;1740711;82;21144;-50
2021/04/06 09:45:46;;;;;;;5.12;1.55;;;;;;;14.14;54.07;100774.03;1730337;82;21190;-50
2021/04/06 09:48:14;;;;;;;5.35;1.45;;;;;;;14.14;54.20;100770.11;1739474;82;21193;-46
2021/04/06 09:51:06;;;;;;;10.63;1.62;;;;;;;14.15;54.34;100769.22;1710305;83;21145;-45
2021/04/06 09:53:37;;;;;;;10.65;2.27;;;;;;;14.16;54.30;100764.36;1707649;83;21163;-47
2021/04/06 09:56:06;;;;;;;9.18;1.77;;;;;;;14.16;54.27;100760.44;1704973;83;21204;-49
2021/04/06 09:58:35;;;;;;;6.85;2.00;;;;;;;14.18;54.35;100757.31;1710523;83;21612;-48
2021/04/06 10:01:07;;;;;;;8.73;1.70;;;;;;;14.20;54.31;100752.88;1712294;83;21613;-45
2021/04/06 10:03:48;;;;;;;9.58;2.30;;;;;;;14.22;54.32;100752.36;1642578;86;21221;-49
2021/04/06 10:06:16;;;;;;;6.65;1.92;;;;;;;14.22;54.34;100748.44;1647175;86;21334;-48
2021/04/06 10:08:44;;;;;;;8.65;2.65;;;;;;;14.27;54.34;100740.42;1653983;86;21263;-46
2021/04/06 10:11:23;;;;;;;6.50;2.17;;;;;;;14.32;54.20;100740.67;1654621;86;21314;-46
2021/04/06 10:13:52;;;;;;;12.25;2.20;;;;;;;14.38;54.12;100731.31;1651883;86;21152;-46
2021/04/06 10:16:32;;;;;;;11.12;2.83;;;;;;;14.48;54.02;100727.88;1770816;79;23057;-48
2021/04/06 10:19:01;;;;;;;7.03;1.60;;;;;;;14.47;53.98;100732.26;1740443;82;21188;-50
2021/04/06 10:21:30;;;;;;;6.30;1.92;;;;;;;14.51;53.75;100733.84;1738311;82;21286;-49
2021/04/06 10:24:05;;;;;;;12.85;2.02;;;;;;;14.53;53.68;100724.16;1740055;82;21157;-48
2021/04/06 10:26:33;;;;;;;7.85;1.90;;;;;;;14.54;53.68;100725.89;1671173;85;21247;-53
2021/04/06 10:29:09;;;;;;;5.28;1.87;;;;;;;14.56;53.60;100721.89;1680093;85;21192;-51
2021/04/06 10:31:52;;;;;;;6.25;1.90;;;;;;;14.65;53.56;100711.08;1771577;79;23052;-47
2021/04/06 10:34:20;;;;;;;8.15;1.82;;;;;;;14.65;53.59;100714.52;1736997;82;21140;-50
2021/04/06 10:37:02;;;;;;;7.78;1.65;;;;;;;14.69;53.46;100710.04;1737402;82;21596;-50
2021/04/06 10:39:41;;;;;;;7.95;1.82;;;;;;;14.74;53.31;100705.91;1735902;82;21124;-51
2021/04/06 10:42:14;;;;;;;9.63;2.30;;;;;;;14.78;53.07;100704.42;1735953;81;21669;-48
2021/04/06 10:44:44;;;;;;;7.83;1.52;;;;;;;14.80;53.08;100696.49;1740480;82;21164;-46
2021/04/06 10:47:28;;;;;;;9.78;1.90;;;;;;;14.82;52.92;100696.00;1744693;82;21535;-47
2021/04/06 10:49:58;;;;;;;5.20;1.62;;;;;;;14.83;52.89;100699.00;1731987;82;21136;-51
2021/04/06 10:52:32;;;;;;;5.80;1.55;;;;;;;14.81;52.86;100692.97;1742645;82;21192;-50
2021/04/06 10:55:03;;;;;;;7.25;1.85;;;;;;;14.81;52.88;100689.05;1735000;81;21116;-48
2021/04/06 10:57:35;;;;;;;6.60;2.08;;;;;;;14.82;52.83;100694.70;1735949;82;21620;-49
2021/04/06 11:00:22;;;;;;;9.05;1.95;;;;;;;14.82;52.80;100685.53;1733866;82;21176;-48
2021/04/06 11:03:08;;;;;;;10.48;2.17;;;;;;;14.81;52.80;100677.26;1657465;84;21667;-49
2021/04/06 11:05:43;;;;;;;11.33;2.25;;;;;;;14.83;52.71;100673.67;1810141;79;22976;-47
2021/04/06 11:08:24;;;;;;;9.95;1.80;;;;;;;14.77;52.82;100673.06;1784607;80;21173;-50
2021/04/06 11:10:55;;;;;;;7.53;1.70;;;;;;;14.74;52.94;100665.31;1778183;80;21164;-47
2021/04/06 11:13:24;;;;;;;6.47;1.75;;;;;;;14.74;52.91;100658.76;1741142;82;21315;-49
2021/04/06 11:15:53;;;;;;;5.28;1.50;;;;;;;14.73;52.85;100656.63;1736162;82;21147;-51
2021/04/06 11:18:22;;;;;;;5.75;1.50;;;;;;;14.73;52.89;100645.28;1738504;82;21632;-49
2021/04/06 11:20:50;;;;;;;7.70;1.42;;;;;;;14.73;52.96;100647.91;1744627;82;21285;-50
2021/04/06 11:23:18;;;;;;;7.05;1.60;;;;;;;14.73;53.03;100641.36;1734599;82;21115;-47
2021/04/06 11:25:47;;;;;;;6.65;1.45;;;;;;;14.74;53.08;100641.73;1728715;82;21583;-49
2021/04/06 11:28:15;;;;;;;8.58;2.17;;;;;;;14.74;53.06;100645.22;1745135;82;21298;-49
2021/04/06 11:30:44;;;;;;;7.30;2.05;;;;;;;14.76;53.05;100642.52;1738847;82;21178;-46
2021/04/06 11:33:12;;;;;;;8.05;1.80;;;;;;;14.78;53.01;100642.00;1744836;82;21154;-47
2021/04/06 11:35:39;;;;;;;6.65;1.80;;;;;;;14.80;53.13;100640.17;1740573;82;21170;-49
2021/04/06 11:38:07;;;;;;;5.95;1.60;;;;;;;14.84;53.12;100636.06;1735010;82;21186;-46
2021/04/06 11:40:36;;;;;;;7.20;1.55;;;;;;;14.89;53.03;100635.43;1737536;82;21163;-50
2021/04/06 11:43:04;;;;;;;7.45;1.87;;;;;;;14.92;53.02;100622.67;1743455;82;21292;-46
2021/04/06 11:45:32;;;;;;;5.15;1.55;;;;;;;15.00;52.83;100620.58;1750193;82;21289;-52
2021/04/06 11:48:00;;;;;;;4.92;1.65;;;;;;;15.02;52.73;100610.89;1739489;82;21142;-50
2021/04/06 11:50:28;;;;;;;8.30;2.67;;;;;;;15.04;52.81;100605.12;1738078;82;21189;-46
2021/04/06 11:52:56;;;;;;;7.33;1.45;;;;;;;15.05;52.73;100596.33;1738237;82;21166;-50
2021/04/06 11:55:24;;;;;;;5.12;1.42;;;;;;;15.07;52.74;100597.11;1747304;82;21611;-46
2021/04/06 11:57:52;;;;;;;5.12;1.85;;;;;;;15.10;52.66;100597.00;1735297;82;21288;-50
2021/04/06 12:00:21;;;;;;;10.25;1.95;;;;;;;15.14;52.47;100593.33;1741155;82;21157;-48
2021/04/06 12:02:49;;;;;;;6.72;1.90;;;;;;;15.15;52.54;100580.60;1749410;82;21183;-47
2021/04/06 12:05:17;;;;;;;14.95;2.35;;;;;;;15.15;52.63;100584.53;1739702;81;21348;-49